Time;durP1;ratioP1;P1;durP2;ratioP2;P2;SDS_P1;SDS_P2;PMS_P1;PMS_P2;Temp;Humidity;BMP_temperature;BMP_pressure;BME280_temperature;BME280_humidity;BME280_pressure;Samples;Min_cycle;Max_cycle;Signal;HPM_P1;HPM_P2
2021/06/25 00:01:25;;;;;;;12.05;6.78;;;;;;;;;;5045395;28;20047;-61
2021/06/25 00:03:54;;;;;;;10.15;6.30;;;;;;;;;;5056431;28;20067;-62
2021/06/25 00:06:21;;;;;;;15.00;7.80;;;;;;;;;;5042913;28;20174;-61
2021/06/25 00:08:47;;;;;;;13.13;7.88;;;;;;;;;;5056641;28;20115;-61
2021/06/25 00:11:13;;;;;;;12.13;7.22;;;;;;;;;;5057083;28;20047;-61
2021/06/25 00:13:39;;;;;;;12.00;6.95;;;;;;;;;;5056537;28;20124;-61
2021/06/25 00:16:12;;;;;;;12.63;6.90;;;;;;;;;;5029279;28;20024;-61
2021/06/25 00:18:37;;;;;;;13.20;7.13;;;;;;;;;;5042040;28;20050;-61
2021/06/25 00:21:06;;;;;;;12.25;7.28;;;;;;;;;;5025729;28;20344;-62
2021/06/25 00:23:34;;;;;;;13.80;7.63;;;;;;;;;;5041546;28;20046;-61
2021/06/25 00:26:00;;;;;;;14.52;7.68;;;;;;;;;;5057089;28;20044;-61
2021/06/25 00:28:27;;;;;;;20.05;7.70;;;;;;;;;;5057567;28;20759;-61
2021/06/25 00:30:55;;;;;;;12.73;7.03;;;;;;;;;;5039519;28;20047;-61
2021/06/25 00:33:24;;;;;;;14.00;7.38;;;;;;;;;;5044909;28;20024;-62
2021/06/25 00:35:51;;;;;;;16.60;8.05;;;;;;;;;;5055559;28;20020;-61
2021/06/25 00:38:21;;;;;;;13.18;8.43;;;;;;;;;;5047802;28;20044;-61
2021/06/25 00:40:47;;;;;;;13.05;7.30;;;;;;;;;;5047048;28;20882;-61
2021/06/25 00:43:15;;;;;;;12.90;7.43;;;;;;;;;;5057252;28;20110;-61
2021/06/25 00:45:43;;;;;;;11.48;7.22;;;;;;;;;;5026439;28;20024;-61
2021/06/25 00:48:09;;;;;;;10.88;6.95;;;;;;;;;;5056502;28;21045;-62
2021/06/25 00:50:37;;;;;;;16.20;7.25;;;;;;;;;;5055858;28;20033;-60
2021/06/25 00:53:05;;;;;;;15.27;7.53;;;;;;;;;;5057273;28;20081;-61
2021/06/25 00:58:50;;;;;;;11.55;6.18;;;;;;;;;;5034589;28;20073;-61
2021/06/25 01:01:19;;;;;;;10.57;6.53;;;;;;;;;;5054683;28;20611;-61
2021/06/25 01:03:47;;;;;;;9.45;5.45;;;;;;;;;;5029319;28;20036;-62
2021/06/25 01:06:15;;;;;;;11.05;6.50;;;;;;;;;;5039036;28;20039;-61
2021/06/25 01:08:41;;;;;;;11.40;6.60;;;;;;;;;;5031869;28;20082;-61
2021/06/25 01:11:07;;;;;;;11.45;6.63;;;;;;;;;;5032010;28;20028;-62
2021/06/25 01:13:35;;;;;;;13.27;6.32;;;;;;;;;;5030042;28;20427;-62
2021/06/25 01:16:01;;;;;;;15.02;7.10;;;;;;;;;;5056804;28;20054;-62
2021/06/25 01:18:26;;;;;;;10.50;5.90;;;;;;;;;;5055708;28;20028;-61
2021/06/25 01:20:56;;;;;;;14.13;7.03;;;;;;;;;;5055652;28;20033;-61
2021/06/25 01:23:24;;;;;;;13.38;7.75;;;;;;;;;;5043805;28;20472;-62
2021/06/25 01:25:52;;;;;;;10.45;6.47;;;;;;;;;;5056406;28;20024;-62
2021/06/25 01:28:21;;;;;;;8.90;6.28;;;;;;;;;;5058045;28;20029;-61
2021/06/25 01:30:49;;;;;;;9.75;5.72;;;;;;;;;;5038616;28;20032;-62
2021/06/25 01:33:18;;;;;;;9.98;6.28;;;;;;;;;;5056173;28;20040;-61
2021/06/25 01:35:46;;;;;;;10.10;6.03;;;;;;;;;;5055345;28;20086;-62
2021/06/25 01:38:14;;;;;;;8.07;4.80;;;;;;;;;;5056238;28;20083;-62
2021/06/25 01:40:45;;;;;;;8.35;5.57;;;;;;;;;;5057217;28;20048;-62
2021/06/25 01:43:12;;;;;;;13.48;5.70;;;;;;;;;;5055897;28;20404;-64
2021/06/25 01:45:40;;;;;;;25.20;6.90;;;;;;;;;;5056140;28;20048;-63
2021/06/25 01:48:10;;;;;;;15.57;6.40;;;;;;;;;;5056492;28;20137;-62
2021/06/25 01:50:38;;;;;;;11.10;6.35;;;;;;;;;;5028697;28;20032;-62
2021/06/25 01:53:06;;;;;;;9.82;6.10;;;;;;;;;;5057581;28;20036;-61
2021/06/25 01:55:41;;;;;;;11.77;7.30;;;;;;;;;;5030080;28;20248;-62
2021/06/25 01:58:11;;;;;;;11.48;6.45;;;;;;;;;;5041981;28;20028;-61
2021/06/25 02:00:41;;;;;;;13.73;6.78;;;;;;;;;;5039961;28;20102;-62
2021/06/25 02:03:06;;;;;;;10.82;6.88;;;;;;;;;;5056399;28;20035;-61
2021/06/25 02:05:36;;;;;;;9.18;5.68;;;;;;;;;;5059293;28;20071;-62
2021/06/25 02:08:02;;;;;;;8.55;5.78;;;;;;;;;;5058308;28;20899;-62
2021/06/25 02:10:30;;;;;;;8.70;5.97;;;;;;;;;;5032288;28;20038;-62
2021/06/25 02:12:58;;;;;;;9.07;5.78;;;;;;;;;;5052239;28;20036;-61
2021/06/25 02:15:24;;;;;;;12.88;6.03;;;;;;;;;;5059779;28;20044;-62
2021/06/25 02:17:49;;;;;;;8.20;5.32;;;;;;;;;;5029904;28;20044;-61
2021/06/25 02:20:17;;;;;;;10.63;6.32;;;;;;;;;;5033901;28;20064;-61
2021/06/25 02:22:47;;;;;;;10.30;6.07;;;;;;;;;;5042989;28;20040;-61
2021/06/25 02:25:13;;;;;;;9.95;5.70;;;;;;;;;;5061001;28;20040;-63
2021/06/25 02:27:43;;;;;;;7.15;4.75;;;;;;;;;;5025658;28;20686;-61
2021/06/25 02:30:15;;;;;;;8.32;4.68;;;;;;;;;;5058275;28;20667;-61
2021/06/25 02:32:41;;;;;;;7.90;4.68;;;;;;;;;;5033692;28;20024;-61
2021/06/25 02:35:07;;;;;;;8.40;4.68;;;;;;;;;;5057649;28;20478;-61
2021/06/25 02:37:38;;;;;;;9.30;5.00;;;;;;;;;;5057947;28;20060;-61
2021/06/25 02:40:04;;;;;;;9.90;5.90;;;;;;;;;;5058263;28;20047;-62
2021/06/25 02:42:32;;;;;;;14.02;6.47;;;;;;;;;;5060029;28;20029;-62
2021/06/25 02:44:58;;;;;;;11.25;7.00;;;;;;;;;;5059016;28;20032;-61
2021/06/25 02:47:26;;;;;;;12.70;7.13;;;;;;;;;;5029845;28;20028;-60
2021/06/25 02:49:52;;;;;;;13.98;7.43;;;;;;;;;;5041863;28;20322;-60
2021/06/25 02:52:17;;;;;;;13.07;7.53;;;;;;;;;;5047469;28;20411;-60
2021/06/25 02:54:43;;;;;;;13.63;7.80;;;;;;;;;;5051037;28;20063;-60
2021/06/25 02:57:08;;;;;;;12.98;8.07;;;;;;;;;;5011145;28;20131;-60
2021/06/25 02:59:36;;;;;;;15.45;8.07;;;;;;;;;;5058984;28;20515;-60
2021/06/25 03:02:04;;;;;;;18.27;9.02;;;;;;;;;;5058712;28;20028;-60
2021/06/25 03:04:29;;;;;;;12.57;7.50;;;;;;;;;;5045706;28;20176;-60
2021/06/25 03:06:55;;;;;;;13.50;7.53;;;;;;;;;;5058550;28;20449;-60
2021/06/25 03:09:24;;;;;;;14.45;7.43;;;;;;;;;;5058952;28;20131;-60
2021/06/25 03:11:53;;;;;;;8.52;5.07;;;;;;;;;;5058923;28;20123;-61
2021/06/25 03:14:21;;;;;;;7.60;4.05;;;;;;;;;;5031395;28;20070;-60
2021/06/25 03:16:49;;;;;;;7.80;5.00;;;;;;;;;;5027687;28;20052;-60
2021/06/25 03:19:17;;;;;;;11.70;6.18;;;;;;;;;;5015101;28;20517;-60
2021/06/25 03:21:43;;;;;;;11.32;6.10;;;;;;;;;;5025451;28;20036;-60
2021/06/25 03:24:12;;;;;;;9.00;5.68;;;;;;;;;;5030723;28;20039;-60
2021/06/25 03:26:40;;;;;;;11.60;6.53;;;;;;;;;;5058705;28;20067;-59
2021/06/25 03:29:06;;;;;;;11.57;6.95;;;;;;;;;;5059019;28;20058;-60
2021/06/25 03:31:34;;;;;;;11.02;6.32;;;;;;;;;;5040507;28;20970;-61
2021/06/25 03:33:59;;;;;;;10.45;6.82;;;;;;;;;;5027938;28;20117;-61
2021/06/25 03:36:25;;;;;;;12.23;7.07;;;;;;;;;;5058088;28;20023;-61
2021/06/25 03:38:51;;;;;;;12.80;7.32;;;;;;;;;;5058736;28;20078;-60
2021/06/25 03:42:01;;;;;;;9.82;6.32;;;;;;;;;;5041655;28;20042;-60
2021/06/25 03:44:34;;;;;;;11.18;5.97;;;;;;;;;;5058106;28;20056;-60
2021/06/25 03:47:02;;;;;;;14.52;6.25;;;;;;;;;;5043708;28;20067;-60
2021/06/25 03:49:28;;;;;;;8.95;5.32;;;;;;;;;;5022904;28;22002;-60
2021/06/25 03:51:59;;;;;;;9.60;7.05;;;;;;;;;;5041299;28;20036;-60
2021/06/25 03:58:00;;;;;;;12.02;6.47;;;;;;;;;;5058776;28;21140;-60
2021/06/25 04:00:28;;;;;;;14.25;6.72;;;;;;;;;;5057228;28;20036;-60
2021/06/25 04:03:08;;;;;;;11.82;5.88;;;;;;;;;;5039003;28;20045;-60
2021/06/25 04:05:34;;;;;;;9.35;5.78;;;;;;;;;;5056314;28;20040;-60
2021/06/25 04:08:00;;;;;;;11.57;6.78;;;;;;;;;;5058043;28;20032;-60
2021/06/25 04:10:28;;;;;;;13.05;7.47;;;;;;;;;;5057357;28;20070;-60
2021/06/25 04:12:54;;;;;;;11.60;7.25;;;;;;;;;;5058453;28;20083;-61
2021/06/25 04:15:19;;;;;;;17.00;8.50;;;;;;;;;;5022140;28;20082;-60
2021/06/25 04:18:00;;;;;;;11.45;6.63;;;;;;;;;;5024990;28;20021;-60
2021/06/25 04:20:26;;;;;;;12.18;7.80;;;;;;;;;;5037450;28;20058;-61
2021/06/25 04:22:52;;;;;;;10.75;6.65;;;;;;;;;;5047796;28;20151;-61
2021/06/25 04:25:17;;;;;;;13.38;8.35;;;;;;;;;;5021311;28;20036;-61
2021/06/25 04:27:43;;;;;;;12.27;6.75;;;;;;;;;;5055734;28;20140;-61
2021/06/25 04:30:12;;;;;;;11.93;7.35;;;;;;;;;;5030294;28;20032;-61
2021/06/25 04:32:41;;;;;;;11.02;7.65;;;;;;;;;;5055126;28;20032;-61
2021/06/25 04:35:07;;;;;;;13.50;6.82;;;;;;;;;;5056353;28;21607;-61
2021/06/25 04:37:33;;;;;;;10.38;6.78;;;;;;;;;;5053128;28;21126;-61
2021/06/25 04:40:03;;;;;;;15.57;8.15;;;;;;;;;;5024934;28;20039;-61
2021/06/25 04:42:29;;;;;;;9.85;6.22;;;;;;;;;;5057516;28;20131;-61
2021/06/25 04:44:57;;;;;;;13.13;7.13;;;;;;;;;;5055520;28;20127;-61
2021/06/25 04:47:25;;;;;;;10.93;7.13;;;;;;;;;;5040949;28;20072;-61
2021/06/25 04:49:53;;;;;;;11.07;7.13;;;;;;;;;;5054537;28;20032;-61
2021/06/25 04:52:23;;;;;;;10.85;7.30;;;;;;;;;;5040878;28;20058;-61
2021/06/25 04:54:49;;;;;;;10.23;6.72;;;;;;;;;;5057251;28;20036;-62
2021/06/25 04:57:17;;;;;;;8.48;6.38;;;;;;;;;;5047096;28;20654;-62
2021/06/25 04:59:46;;;;;;;10.77;7.07;;;;;;;;;;5009888;28;20165;-62
2021/06/25 05:02:12;;;;;;;12.00;6.80;;;;;;;;;;5039667;28;20043;-61
2021/06/25 05:04:37;;;;;;;10.38;6.43;;;;;;;;;;5040189;28;20036;-62
2021/06/25 05:07:03;;;;;;;14.05;6.88;;;;;;;;;;5038744;28;20360;-60
2021/06/25 05:09:29;;;;;;;9.05;6.18;;;;;;;;;;5021108;28;20035;-62
2021/06/25 05:11:54;;;;;;;11.02;6.78;;;;;;;;;;5034602;28;20028;-61
2021/06/25 05:14:25;;;;;;;11.18;6.35;;;;;;;;;;5037806;28;20075;-61
2021/06/25 05:16:53;;;;;;;8.73;6.03;;;;;;;;;;5015673;28;20043;-61
2021/06/25 05:19:23;;;;;;;11.30;6.50;;;;;;;;;;5016476;28;20384;-62
2021/06/25 05:22:01;;;;;;;9.55;5.78;;;;;;;;;;5054902;28;20028;-62
2021/06/25 05:24:27;;;;;;;6.80;5.43;;;;;;;;;;5048187;28;20622;-62
2021/06/25 05:26:52;;;;;;;8.32;5.65;;;;;;;;;;5049357;28;20032;-61
2021/06/25 05:29:20;;;;;;;8.82;5.63;;;;;;;;;;5035378;28;20036;-62
2021/06/25 05:31:46;;;;;;;6.65;4.90;;;;;;;;;;5052074;28;20028;-62
2021/06/25 05:34:12;;;;;;;6.78;5.22;;;;;;;;;;5035339;28;20051;-62
2021/06/25 05:36:40;;;;;;;7.10;5.13;;;;;;;;;;5045824;28;20073;-63
2021/06/25 05:39:11;;;;;;;9.98;5.20;;;;;;;;;;5020549;28;20057;-62
2021/06/25 05:41:39;;;;;;;10.65;4.63;;;;;;;;;;5016959;28;20029;-62
2021/06/25 05:44:25;;;;;;;7.55;5.97;;;;;;;;;;5035627;28;20032;-62
2021/06/25 05:46:51;;;;;;;7.07;5.47;;;;;;;;;;5033942;28;21899;-62
2021/06/25 05:49:22;;;;;;;7.15;5.43;;;;;;;;;;5012693;28;20040;-62
2021/06/25 05:51:49;;;;;;;7.78;4.65;;;;;;;;;;5034129;28;20865;-62
2021/06/25 05:54:15;;;;;;;8.35;4.85;;;;;;;;;;5034041;28;20087;-62
2021/06/25 05:56:43;;;;;;;6.75;4.40;;;;;;;;;;5014890;28;20530;-62
2021/06/25 05:59:08;;;;;;;8.00;5.50;;;;;;;;;;5034178;28;20028;-63
2021/06/25 06:01:34;;;;;;;14.77;5.40;;;;;;;;;;5038904;28;20036;-63
2021/06/25 06:03:59;;;;;;;6.80;5.93;;;;;;;;;;5038978;28;20029;-64
2021/06/25 06:06:26;;;;;;;7.20;5.13;;;;;;;;;;5036286;28;20025;-64
2021/06/25 06:08:51;;;;;;;7.43;5.38;;;;;;;;;;5038740;28;20107;-64
2021/06/25 06:11:16;;;;;;;5.70;5.07;;;;;;;;;;5040830;28;20037;-64
2021/06/25 06:13:42;;;;;;;7.65;4.70;;;;;;;;;;5044988;28;20018;-63
2021/06/25 06:16:08;;;;;;;7.82;5.32;;;;;;;;;;5039552;28;20035;-63
2021/06/25 06:18:43;;;;;;;8.73;5.15;;;;;;;;;;5038843;28;20044;-63
2021/06/25 06:21:09;;;;;;;5.65;5.07;;;;;;;;;;5039583;28;20120;-63
2021/06/25 06:32:00;;;;;;;9.68;4.63;;;;;;;;;;5037417;28;20096;-64
2021/06/25 06:34:39;;;;;;;5.07;4.57;;;;;;;;;;5040311;28;20082;-63
2021/06/25 06:37:05;;;;;;;7.13;4.70;;;;;;;;;;5037611;28;20717;-63
2021/06/25 06:39:33;;;;;;;6.63;4.72;;;;;;;;;;5034964;28;20059;-63
2021/06/25 06:41:59;;;;;;;5.47;4.88;;;;;;;;;;5053879;28;20490;-63
2021/06/25 06:48:00;;;;;;;12.85;4.90;;;;;;;;;;5038720;28;20043;-63
2021/06/25 06:50:26;;;;;;;7.50;5.28;;;;;;;;;;5035970;28;21023;-63
2021/06/25 06:52:51;;;;;;;6.47;5.15;;;;;;;;;;5038422;28;20907;-64
2021/06/25 06:58:53;;;;;;;7.07;4.47;;;;;;;;;;5038930;28;20039;-63
2021/06/25 07:01:20;;;;;;;7.30;4.68;;;;;;;;;;5036954;28;20037;-63
2021/06/25 07:03:46;;;;;;;5.32;4.28;;;;;;;;;;5035938;28;20036;-64
2021/06/25 07:06:13;;;;;;;5.40;4.43;;;;;;;;;;5037450;28;20029;-63
2021/06/25 07:08:54;;;;;;;8.20;4.32;;;;;;;;;;5019072;28;20895;-63
2021/06/25 07:11:35;;;;;;;5.78;5.00;;;;;;;;;;5034862;28;20037;-65
2021/06/25 07:17:35;;;;;;;7.32;4.60;;;;;;;;;;5035403;28;20101;-64
2021/06/25 07:20:25;;;;;;;4.30;3.72;;;;;;;;;;5051085;28;20131;-64
2021/06/25 07:22:53;;;;;;;5.22;3.90;;;;;;;;;;5035408;28;20080;-64
2021/06/25 07:25:19;;;;;;;5.93;4.28;;;;;;;;;;5036059;28;20726;-64
2021/06/25 07:27:45;;;;;;;4.13;3.70;;;;;;;;;;5038356;28;20059;-64
2021/06/25 07:30:12;;;;;;;6.65;3.95;;;;;;;;;;5035878;28;20055;-64
2021/06/25 07:32:38;;;;;;;7.10;3.38;;;;;;;;;;5034285;28;20102;-64
2021/06/25 07:35:04;;;;;;;4.97;3.53;;;;;;;;;;5034769;28;20591;-65
2021/06/25 07:37:29;;;;;;;4.07;3.70;;;;;;;;;;5036274;28;20037;-65
2021/06/25 07:39:55;;;;;;;5.50;3.42;;;;;;;;;;5042352;28;22018;-64
2021/06/25 07:42:25;;;;;;;3.63;3.33;;;;;;;;;;5035715;28;20047;-64
2021/06/25 07:44:50;;;;;;;6.22;3.45;;;;;;;;;;5037031;28;21508;-64
2021/06/25 07:47:16;;;;;;;3.22;2.80;;;;;;;;;;5035159;28;20099;-64
2021/06/25 07:49:42;;;;;;;4.18;2.65;;;;;;;;;;5036812;28;20025;-65
2021/06/25 07:52:07;;;;;;;2.65;2.45;;;;;;;;;;5039653;28;20120;-65
2021/06/25 07:58:17;;;;;;;4.22;3.03;;;;;;;;;;5035663;28;20168;-64
2021/06/25 08:00:43;;;;;;;3.45;2.75;;;;;;;;;;5051431;28;20078;-64
2021/06/25 08:03:08;;;;;;;3.83;2.80;;;;;;;;;;5035779;28;20054;-66
2021/06/25 08:05:34;;;;;;;3.33;2.63;;;;;;;;;;5035282;28;20056;-64
2021/06/25 08:08:00;;;;;;;4.88;3.17;;;;;;;;;;5036663;28;20047;-64
2021/06/25 08:10:25;;;;;;;4.65;3.15;;;;;;;;;;5037463;28;20036;-65
2021/06/25 08:12:51;;;;;;;5.78;3.00;;;;;;;;;;5034620;28;20116;-63
2021/06/25 08:15:35;;;;;;;4.40;2.78;;;;;;;;;;5020339;28;20480;-64
2021/06/25 08:18:00;;;;;;;;;;;;;;;;;;5036367;28;20043;-64
2021/06/25 08:20:26;;;;;;;11.43;3.57;;;;;;;;;;5026368;28;19912;-64
2021/06/25 08:22:54;;;;;;;5.10;3.40;;;;;;;;;;5037499;28;21905;-64
2021/06/25 08:25:22;;;;;;;6.78;4.20;;;;;;;;;;5037158;28;20021;-64
2021/06/25 08:27:50;;;;;;;4.88;3.20;;;;;;;;;;5037214;28;20025;-63
2021/06/25 08:30:16;;;;;;;6.82;3.42;;;;;;;;;;5041513;28;20021;-64
2021/06/25 08:32:43;;;;;;;3.45;3.10;;;;;;;;;;5020162;28;20044;-63
2021/06/25 08:35:09;;;;;;;5.22;3.10;;;;;;;;;;5037640;28;20028;-63
2021/06/25 08:37:34;;;;;;;5.47;3.10;;;;;;;;;;5030622;28;20042;-64
2021/06/25 08:40:00;;;;;;;5.05;3.13;;;;;;;;;;5034871;28;20083;-64
2021/06/25 08:42:25;;;;;;;5.68;2.90;;;;;;;;;;5035833;28;20487;-63
2021/06/25 08:45:29;;;;;;;2.92;2.10;;;;;;;;;;5028026;28;20403;-63
2021/06/25 08:47:59;;;;;;;4.15;2.58;;;;;;;;;;5029950;28;20625;-63
2021/06/25 08:50:55;;;;;;;2.92;2.63;;;;;;;;;;5028117;28;20413;-64
2021/06/25 08:53:21;;;;;;;5.43;2.60;;;;;;;;;;5032528;28;20041;-63
2021/06/25 08:55:46;;;;;;;5.18;2.42;;;;;;;;;;5033860;28;20033;-63
2021/06/25 08:58:19;;;;;;;3.03;2.45;;;;;;;;;;5031925;28;20047;-64
2021/06/25 09:01:09;;;;;;;8.93;2.30;;;;;;;;;;5014126;28;20117;-64
2021/06/25 09:03:38;;;;;;;3.80;2.70;;;;;;;;;;5029957;28;20159;-62
2021/06/25 09:06:16;;;;;;;9.35;3.08;;;;;;;;;;5025751;28;20037;-64
2021/06/25 09:08:42;;;;;;;3.60;2.20;;;;;;;;;;5037043;28;20709;-64
2021/06/25 09:11:30;;;;;;;5.03;2.22;;;;;;;;;;5030786;28;20025;-63
2021/06/25 09:14:01;;;;;;;4.45;2.22;;;;;;;;;;5032804;28;20872;-64
2021/06/25 09:20:05;;;;;;;6.95;3.10;;;;;;;;;;5036289;28;20074;-63
2021/06/25 09:22:31;;;;;;;4.03;2.60;;;;;;;;;;5036323;28;20036;-63
2021/06/25 09:25:02;;;;;;;5.85;2.58;;;;;;;;;;5033078;28;20017;-65
2021/06/25 09:27:30;;;;;;;3.22;2.83;;;;;;;;;;5031080;28;20488;-62
2021/06/25 09:29:55;;;;;;;5.72;2.97;;;;;;;;;;5033893;28;21054;-64
2021/06/25 09:32:33;;;;;;;7.05;3.00;;;;;;;;;;5027450;28;21004;-63
2021/06/25 09:35:00;;;;;;;8.55;3.60;;;;;;;;;;5027598;28;20052;-63
2021/06/25 09:37:50;;;;;;;5.68;3.40;;;;;;;;;;5022866;28;20559;-64
2021/06/25 09:40:18;;;;;;;4.70;3.47;;;;;;;;;;5035225;28;20131;-65
2021/06/25 09:46:30;;;;;;;5.80;3.70;;;;;;;;;;5005927;28;20139;-64
2021/06/25 09:49:01;;;;;;;5.78;3.35;;;;;;;;;;5005290;28;20148;-64
2021/06/25 09:51:26;;;;;;;5.25;3.25;;;;;;;;;;4999709;28;20037;-67
2021/06/25 09:57:30;;;;;;;5.32;3.35;;;;;;;;;;5007163;28;20020;-65
2021/06/25 10:00:09;;;;;;;5.07;3.00;;;;;;;;;;5000468;28;20152;-65
2021/06/25 10:02:35;;;;;;;6.63;3.35;;;;;;;;;;4992441;28;20057;-65
2021/06/25 10:05:21;;;;;;;5.45;2.67;;;;;;;;;;5006998;28;20044;-65
2021/06/25 10:07:47;;;;;;;5.95;3.10;;;;;;;;;;4997296;28;20033;-65
2021/06/25 10:10:17;;;;;;;4.80;3.20;;;;;;;;;;4977686;28;20114;-66
2021/06/25 10:12:48;;;;;;;7.38;4.00;;;;;;;;;;4989465;28;20964;-66
2021/06/25 10:15:19;;;;;;;8.32;3.67;;;;;;;;;;5010029;28;20044;-64
2021/06/25 10:21:24;;;;;;;3.75;2.92;;;;;;;;;;5029602;28;20515;-65
2021/06/25 10:23:52;;;;;;;7.95;3.83;;;;;;;;;;5041050;28;20141;-64
2021/06/25 10:26:18;;;;;;;6.20;3.38;;;;;;;;;;5035162;28;20682;-65
2021/06/25 10:28:45;;;;;;;6.88;3.25;;;;;;;;;;5030533;28;20035;-64
2021/06/25 10:31:14;;;;;;;10.20;3.90;;;;;;;;;;5033752;28;20016;-67
2021/06/25 10:33:45;;;;;;;9.52;4.07;;;;;;;;;;5034122;28;20156;-66
2021/06/25 10:36:12;;;;;;;8.30;3.58;;;;;;;;;;5028891;28;20763;-65
2021/06/25 10:38:42;;;;;;;7.38;3.70;;;;;;;;;;5037109;28;20039;-66
2021/06/25 10:41:12;;;;;;;4.68;4.22;;;;;;;;;;5053317;28;20032;-65
2021/06/25 10:43:39;;;;;;;7.15;3.90;;;;;;;;;;5026860;28;20172;-65
2021/06/25 10:46:07;;;;;;;7.32;4.75;;;;;;;;;;5023392;28;20016;-66
2021/06/25 10:48:41;;;;;;;5.45;4.05;;;;;;;;;;5052496;28;20082;-66
2021/06/25 10:51:20;;;;;;;10.38;5.25;;;;;;;;;;5034693;28;20055;-65
2021/06/25 10:54:16;;;;;;;7.15;5.28;;;;;;;;;;5036480;28;20054;-66
2021/06/25 10:56:43;;;;;;;15.77;5.53;;;;;;;;;;5049640;28;20044;-65
2021/06/25 10:59:22;;;;;;;9.02;5.05;;;;;;;;;;5038694;28;20651;-65
2021/06/25 11:01:53;;;;;;;6.80;4.80;;;;;;;;;;5034431;28;20089;-65
2021/06/25 11:07:54;;;;;;;6.55;4.97;;;;;;;;;;5051618;28;20031;-65
2021/06/25 11:14:24;;;;;;;7.15;4.20;;;;;;;;;;5053917;28;20039;-66
2021/06/25 11:20:30;;;;;;;8.90;4.20;;;;;;;;;;5035110;28;20028;-66
2021/06/25 11:26:15;;;;;;;6.57;4.53;;;;;;;;;;5052277;28;20056;-66
2021/06/25 11:28:54;;;;;;;7.15;4.80;;;;;;;;;;5038173;28;20059;-65
2021/06/25 11:31:24;;;;;;;5.85;4.60;;;;;;;;;;5047715;28;20036;-64
2021/06/25 11:36:55;;;;;;;6.03;4.28;;;;;;;;;;5035134;28;20062;-65
2021/06/25 11:39:21;;;;;;;9.25;4.35;;;;;;;;;;5052895;28;20051;-66
2021/06/25 11:41:56;;;;;;;5.97;4.57;;;;;;;;;;5054068;28;20177;-66
2021/06/25 11:44:34;;;;;;;7.63;4.55;;;;;;;;;;5050996;28;20713;-64
2021/06/25 11:47:44;;;;;;;6.85;4.40;;;;;;;;;;5034958;28;20032;-65
2021/06/25 11:50:16;;;;;;;5.05;3.72;;;;;;;;;;5043343;28;20116;-65
2021/06/25 11:53:12;;;;;;;4.80;4.22;;;;;;;;;;5038735;28;21242;-65
2021/06/25 11:55:43;;;;;;;5.85;4.45;;;;;;;;;;5052494;28;20028;-65
2021/06/25 11:58:17;;;;;;;5.25;4.40;;;;;;;;;;5052451;28;20036;-65
2021/06/25 12:00:43;;;;;;;6.35;4.72;;;;;;;;;;5037585;28;20031;-65
2021/06/25 12:03:08;;;;;;;8.15;5.50;;;;;;;;;;5031258;28;20166;-64
2021/06/25 12:06:03;;;;;;;8.43;5.75;;;;;;;;;;5033582;28;20418;-64
2021/06/25 12:08:28;;;;;;;10.85;6.97;;;;;;;;;;5049307;28;20020;-64
2021/06/25 12:10:54;;;;;;;13.15;8.10;;;;;;;;;;5035742;28;20911;-64
2021/06/25 12:13:23;;;;;;;12.95;8.45;;;;;;;;;;5032489;28;20036;-65
2021/06/25 12:15:49;;;;;;;11.02;7.97;;;;;;;;;;5040563;28;20033;-65
2021/06/25 12:18:19;;;;;;;15.63;7.85;;;;;;;;;;5049660;28;20036;-65
2021/06/25 12:20:45;;;;;;;14.18;7.75;;;;;;;;;;5023999;28;20051;-65
2021/06/25 12:23:13;;;;;;;14.68;8.27;;;;;;;;;;5035663;28;20131;-65
2021/06/25 12:25:52;;;;;;;17.80;8.68;;;;;;;;;;5002465;28;20059;-65
2021/06/25 12:28:23;;;;;;;16.95;8.43;;;;;;;;;;5048949;28;20031;-65
2021/06/25 12:30:52;;;;;;;11.18;7.53;;;;;;;;;;5055114;28;21106;-66
2021/06/25 12:33:22;;;;;;;14.20;8.05;;;;;;;;;;5036310;28;20123;-66
2021/06/25 12:36:15;;;;;;;11.65;8.35;;;;;;;;;;5023749;28;20059;-65
2021/06/25 12:42:20;;;;;;;11.60;7.00;;;;;;;;;;5055408;28;20047;-66
2021/06/25 12:44:49;;;;;;;10.45;7.18;;;;;;;;;;5043291;28;20107;-66
2021/06/25 12:47:29;;;;;;;13.55;8.02;;;;;;;;;;5046059;28;20116;-66
2021/06/25 12:49:57;;;;;;;13.70;7.13;;;;;;;;;;5054111;28;20028;-66
2021/06/25 12:52:23;;;;;;;11.77;7.50;;;;;;;;;;5038835;28;20727;-66
2021/06/25 12:57:56;;;;;;;13.48;8.75;;;;;;;;;;5056873;28;20036;-65
2021/06/25 13:00:28;;;;;;;13.32;8.68;;;;;;;;;;5039429;28;20115;-67
2021/06/25 13:02:53;;;;;;;12.68;8.25;;;;;;;;;;5054107;28;20039;-66
2021/06/25 13:05:38;;;;;;;14.98;8.98;;;;;;;;;;5053608;28;21765;-66
2021/06/25 13:08:18;;;;;;;20.83;9.45;;;;;;;;;;5021193;28;20040;-66
2021/06/25 13:10:43;;;;;;;13.25;8.77;;;;;;;;;;5041622;28;20482;-66
2021/06/25 13:13:23;;;;;;;12.48;8.35;;;;;;;;;;5036327;28;20032;-66
2021/06/25 13:15:56;;;;;;;14.07;8.73;;;;;;;;;;5044211;28;20036;-65
2021/06/25 13:18:27;;;;;;;16.67;10.45;;;;;;;;;;5056530;28;20040;-66
2021/06/25 13:21:14;;;;;;;14.10;9.95;;;;;;;;;;5053407;28;20089;-66
2021/06/25 13:24:14;;;;;;;20.35;10.30;;;;;;;;;;5038150;28;20036;-66
2021/06/25 13:26:53;;;;;;;13.45;8.95;;;;;;;;;;4978171;28;20038;-66
2021/06/25 13:29:54;;;;;;;15.00;10.05;;;;;;;;;;5001127;28;20044;-66
2021/06/25 13:32:24;;;;;;;16.27;9.85;;;;;;;;;;5054264;28;20628;-66
2021/06/25 13:34:58;;;;;;;17.02;9.20;;;;;;;;;;5035943;28;20032;-67
2021/06/25 13:37:39;;;;;;;17.88;10.48;;;;;;;;;;5035353;28;20085;-66
2021/06/25 13:40:10;;;;;;;;;;;;;;;;;;5056155;28;20028;-66
2021/06/25 13:42:36;;;;;;;16.23;9.85;;;;;;;;;;5053544;28;20267;-65
2021/06/25 13:45:31;;;;;;;13.27;9.73;;;;;;;;;;5054864;28;20894;-66
2021/06/25 13:47:57;;;;;;;14.68;10.20;;;;;;;;;;5026648;28;20044;-66
2021/06/25 13:50:22;;;;;;;13.27;9.70;;;;;;;;;;5022278;28;20056;-67
2021/06/25 13:52:57;;;;;;;20.98;10.40;;;;;;;;;;5057429;28;20028;-66
2021/06/25 13:55:26;;;;;;;15.20;10.93;;;;;;;;;;5058071;28;20033;-66
2021/06/25 13:57:59;;;;;;;14.23;9.73;;;;;;;;;;5058811;28;20032;-65
2021/06/25 14:00:30;;;;;;;17.60;10.40;;;;;;;;;;5058692;28;21507;-65
2021/06/25 14:02:58;;;;;;;16.75;10.20;;;;;;;;;;5040012;28;20044;-64
2021/06/25 14:05:24;;;;;;;18.15;10.57;;;;;;;;;;5039139;28;20596;-65
2021/06/25 14:07:55;;;;;;;15.75;10.52;;;;;;;;;;5058117;28;20069;-66
2021/06/25 14:10:24;;;;;;;17.92;11.68;;;;;;;;;;5056097;28;20028;-65
2021/06/25 14:13:00;;;;;;;21.33;11.10;;;;;;;;;;5039194;28;20504;-66
2021/06/25 14:15:28;;;;;;;19.67;11.57;;;;;;;;;;5056542;28;20047;-66
2021/06/25 14:17:57;;;;;;;20.42;10.80;;;;;;;;;;5039777;28;20505;-65
2021/06/25 14:27:04;;;;;;;17.98;11.35;;;;;;;;;;5057451;28;20062;-66
2021/06/25 14:29:30;;;;;;;23.45;11.55;;;;;;;;;;5041590;28;20025;-65
2021/06/25 14:31:56;;;;;;;15.93;10.63;;;;;;;;;;5041998;28;20139;-65
2021/06/25 14:34:21;;;;;;;21.58;11.88;;;;;;;;;;5021304;28;20032;-65
2021/06/25 14:36:49;;;;;;;20.17;11.38;;;;;;;;;;5057657;28;20053;-65
2021/06/25 14:39:14;;;;;;;18.20;10.88;;;;;;;;;;5056629;28;20486;-66
2021/06/25 14:41:43;;;;;;;25.35;11.25;;;;;;;;;;5056963;28;20107;-65
2021/06/25 14:44:08;;;;;;;15.73;10.90;;;;;;;;;;5039190;28;20498;-65
2021/06/25 14:46:36;;;;;;;19.80;11.70;;;;;;;;;;5041920;28;20040;-65
2021/06/25 14:49:01;;;;;;;23.70;12.55;;;;;;;;;;5028224;28;20032;-65
2021/06/25 14:51:39;;;;;;;18.60;11.02;;;;;;;;;;5037907;28;20082;-66
2021/06/25 14:55:00;;;;;;;25.83;11.77;;;;;;;;;;5025761;28;20106;-65
2021/06/25 14:57:46;;;;;;;23.10;12.00;;;;;;;;;;5022751;28;20041;-66
2021/06/25 15:03:33;;;;;;;20.52;11.77;;;;;;;;;;5042909;28;20040;-65
2021/06/25 15:05:59;;;;;;;22.05;12.18;;;;;;;;;;5053838;28;20040;-65
2021/06/25 15:08:25;;;;;;;23.75;13.05;;;;;;;;;;5038457;28;20067;-65
2021/06/25 15:10:53;;;;;;;21.95;12.07;;;;;;;;;;5043247;28;20032;-64
2021/06/25 15:13:18;;;;;;;21.08;12.57;;;;;;;;;;5057043;28;20035;-63
2021/06/25 15:15:45;;;;;;;21.15;12.85;;;;;;;;;;5042756;28;20050;-64
2021/06/25 15:18:13;;;;;;;24.90;12.27;;;;;;;;;;5046655;28;20032;-64
2021/06/25 15:20:39;;;;;;;21.98;12.20;;;;;;;;;;5058412;28;20875;-64
2021/06/25 15:23:05;;;;;;;23.67;12.55;;;;;;;;;;5037988;28;20036;-64
2021/06/25 15:25:31;;;;;;;23.13;12.40;;;;;;;;;;5037589;28;20051;-65
2021/06/25 15:27:56;;;;;;;21.95;12.20;;;;;;;;;;5049684;28;20034;-64
2021/06/25 15:30:23;;;;;;;19.98;12.02;;;;;;;;;;5040408;28;20024;-64
2021/06/25 15:32:54;;;;;;;26.63;13.75;;;;;;;;;;5040365;28;20048;-63
2021/06/25 15:35:22;;;;;;;22.85;12.15;;;;;;;;;;5056448;28;20049;-65
2021/06/25 15:37:48;;;;;;;25.75;14.30;;;;;;;;;;5053949;28;20031;-66
2021/06/25 15:40:13;;;;;;;25.98;12.75;;;;;;;;;;5056309;28;20823;-67
2021/06/25 15:42:39;;;;;;;22.63;12.70;;;;;;;;;;5036120;28;21248;-65
2021/06/25 15:45:14;;;;;;;33.90;13.05;;;;;;;;;;5022791;28;20044;-65
2021/06/25 15:47:41;;;;;;;26.20;13.00;;;;;;;;;;5039961;28;20048;-65
2021/06/25 15:50:08;;;;;;;21.45;12.60;;;;;;;;;;5053488;28;20361;-65
2021/06/25 15:52:34;;;;;;;23.08;12.73;;;;;;;;;;5040373;28;20440;-65
2021/06/25 15:55:00;;;;;;;22.88;13.85;;;;;;;;;;5056523;28;20058;-66
2021/06/25 15:58:00;;;;;;;20.10;12.18;;;;;;;;;;5039511;28;20032;-63
2021/06/25 16:00:27;;;;;;;21.17;13.77;;;;;;;;;;5057664;28;20506;-64
2021/06/25 16:03:04;;;;;;;24.17;12.90;;;;;;;;;;5056000;28;20513;-65
2021/06/25 16:06:03;;;;;;;21.77;12.77;;;;;;;;;;5056461;28;20020;-64
2021/06/25 16:12:21;;;;;;;;;;;;;;;;;;;;;
2021/06/25 16:15:23;;;;;;;21.55;12.75;;;;;;;;;;4965930;28;20449;-64